Time;durP1;ratioP1;P1;durP2;ratioP2;P2;SDS_P1;SDS_P2;PMS_P1;PMS_P2;Temp;Humidity;BMP_temperature;BMP_pressure;BME280_temperature;BME280_humidity;BME280_pressure;Samples;Min_cycle;Max_cycle;Signal;HPM_P1;HPM_P2
2021/12/28 00:01:32;;;;;;;41.20;16.73;;;;;;;-7.70;66.03;100229.90;1700314;84;25594;-75
2021/12/28 00:03:58;;;;;;;38.20;15.63;;;;;;;-7.74;65.90;100221.59;1648867;85;25759;-76
2021/12/28 00:06:25;;;;;;;40.43;16.00;;;;;;;-7.78;65.89;100208.54;1677169;85;25586;-77
2021/12/28 00:08:52;;;;;;;39.05;15.28;;;;;;;-7.85;65.89;100209.48;1677075;85;25204;-78
2021/12/28 00:11:18;;;;;;;43.83;15.13;;;;;;;-7.85;66.31;100208.97;1677052;85;28016;-76
2021/12/28 00:13:45;;;;;;;41.77;15.32;;;;;;;-7.85;66.25;100212.91;1676938;85;25567;-76
2021/12/28 00:16:29;;;;;;;40.03;16.48;;;;;;;-7.88;66.24;100206.75;1677048;84;25503;-76
2021/12/28 00:18:40;;;;;;;37.38;15.95;;;;;;;-7.90;66.29;100212.19;1679583;82;25375;-74
2021/12/28 00:21:07;;;;;;;42.58;16.85;;;;;;;-7.91;66.28;100207.13;1675997;85;25658;-74
2021/12/28 00:23:39;;;;;;;46.40;16.57;;;;;;;-7.97;66.41;100207.86;1669668;85;28063;-74
2021/12/28 00:26:13;;;;;;;42.55;15.43;;;;;;;-7.98;66.53;100207.57;1669539;85;25472;-74
2021/12/28 00:28:42;;;;;;;45.10;16.70;;;;;;;-8.00;66.56;100211.70;1669718;86;25625;-74
2021/12/28 00:31:11;;;;;;;42.65;16.10;;;;;;;-8.00;66.68;100213.01;1669787;85;25665;-74
2021/12/28 00:33:38;;;;;;;39.25;16.07;;;;;;;-8.01;66.70;100211.38;1669971;86;25517;-73
2021/12/28 00:36:05;;;;;;;40.38;17.32;;;;;;;-8.02;66.75;100209.73;1669706;85;27603;-74
2021/12/28 00:38:33;;;;;;;38.50;14.80;;;;;;;-8.05;66.81;100212.77;1669569;86;25419;-74
2021/12/28 00:41:03;;;;;;;36.68;16.20;;;;;;;-8.07;66.73;100208.17;1692641;84;25247;-74
2021/12/28 00:43:31;;;;;;;43.63;16.82;;;;;;;-8.09;66.87;100208.88;1669649;86;25656;-74
2021/12/28 00:45:58;;;;;;;36.55;15.40;;;;;;;-8.14;66.93;100207.31;1669837;85;25520;-74
2021/12/28 00:48:25;;;;;;;37.33;14.65;;;;;;;-8.15;67.36;100200.45;1670013;85;27933;-73
2021/12/28 00:50:52;;;;;;;39.25;14.55;;;;;;;-8.19;67.08;100207.06;1670164;86;25568;-73
2021/12/28 00:53:20;;;;;;;43.90;16.50;;;;;;;-8.19;67.27;100208.38;1669614;86;25510;-74
2021/12/28 00:55:47;;;;;;;38.33;16.75;;;;;;;-8.18;67.46;100213.44;1669753;86;25848;-74
2021/12/28 00:58:13;;;;;;;47.98;16.73;;;;;;;-8.22;67.32;100203.50;1669779;86;25502;-74
2021/12/28 01:00:41;;;;;;;42.15;16.07;;;;;;;-8.23;67.42;100204.01;1669788;85;27410;-74
2021/12/28 01:03:09;;;;;;;45.70;17.73;;;;;;;-8.26;67.35;100195.19;1669499;86;25542;-74
2021/12/28 01:05:38;;;;;;;41.77;17.23;;;;;;;-8.28;67.37;100190.64;1646716;86;25553;-74
2021/12/28 01:08:06;;;;;;;48.67;17.20;;;;;;;-8.26;67.62;100196.02;1670061;85;25742;-72
2021/12/28 01:10:41;;;;;;;42.98;16.82;;;;;;;-8.28;67.49;100195.88;1669818;85;25679;-72
2021/12/28 01:13:08;;;;;;;39.60;15.80;;;;;;;-8.30;67.57;100193.45;1669676;85;27933;-73
2021/12/28 01:15:35;;;;;;;44.13;15.65;;;;;;;-8.32;67.70;100185.46;1669671;86;25637;-73
2021/12/28 01:18:01;;;;;;;43.05;15.50;;;;;;;-8.33;67.70;100178.07;1669774;85;25434;-73
2021/12/28 01:20:28;;;;;;;37.00;16.42;;;;;;;-8.36;67.81;100182.88;1693006;84;25848;-73
2021/12/28 01:22:56;;;;;;;38.20;16.60;;;;;;;-8.37;67.97;100178.14;1669684;84;25871;-73
2021/12/28 01:25:23;;;;;;;42.08;16.27;;;;;;;-8.40;68.01;100180.34;1669514;85;27185;-73
2021/12/28 01:27:50;;;;;;;37.85;16.93;;;;;;;-8.42;68.02;100182.38;1669449;85;25665;-72
2021/12/28 01:30:21;;;;;;;38.98;16.02;;;;;;;-8.43;68.11;100186.78;1669806;86;25419;-72
2021/12/28 01:32:51;;;;;;;43.23;17.55;;;;;;;-8.47;68.07;100181.10;1669835;86;25512;-73
2021/12/28 01:35:20;;;;;;;41.98;17.00;;;;;;;-8.45;68.27;100171.73;1670770;85;25232;-73
2021/12/28 01:37:48;;;;;;;37.58;16.40;;;;;;;-8.43;68.28;100169.73;1669862;86;27360;-73
2021/12/28 01:40:20;;;;;;;44.00;16.80;;;;;;;-8.45;68.18;100173.85;1669031;85;25633;-74
2021/12/28 01:43:07;;;;;;;48.50;16.82;;;;;;;-8.47;68.28;100158.00;1669914;84;25426;-74
2021/12/28 01:45:53;;;;;;;39.98;17.48;;;;;;;-8.49;68.32;100167.36;1692457;84;25565;-74
2021/12/28 01:48:28;;;;;;;44.03;16.60;;;;;;;-8.51;68.35;100163.29;1646444;86;25511;-74
2021/12/28 01:51:03;;;;;;;44.88;16.87;;;;;;;-8.57;68.52;100162.75;1668243;86;27350;-75
2021/12/28 01:53:30;;;;;;;37.73;16.02;;;;;;;-8.57;68.75;100160.13;1669680;86;25467;-75
2021/12/28 01:56:01;;;;;;;37.08;15.10;;;;;;;-8.59;68.84;100162.92;1669769;86;25677;-75
2021/12/28 01:58:27;;;;;;;44.88;17.27;;;;;;;-8.60;68.81;100161.29;1669672;86;25498;-74
2021/12/28 02:00:56;;;;;;;44.38;17.17;;;;;;;-8.58;68.84;100151.45;1669473;85;25498;-75
2021/12/28 02:03:25;;;;;;;27.93;12.87;;;;;;;-8.58;68.83;100149.30;1670095;86;27362;-73
2021/12/28 02:05:53;;;;;;;42.88;16.37;;;;;;;-8.61;68.83;100157.06;1670162;85;25442;-72
2021/12/28 02:08:20;;;;;;;39.75;16.80;;;;;;;-8.60;68.81;100161.80;1669767;86;25636;-72
2021/12/28 02:10:51;;;;;;;45.40;17.15;;;;;;;-8.62;68.90;100157.25;1669713;86;25518;-72
2021/12/28 02:13:19;;;;;;;37.13;16.90;;;;;;;-8.65;68.98;100163.66;1669777;85;25490;-72
2021/12/28 02:15:47;;;;;;;38.85;15.53;;;;;;;-8.65;69.08;100167.59;1669767;86;27345;-72
2021/12/28 02:18:16;;;;;;;39.00;15.55;;;;;;;-8.64;69.26;100162.17;1669625;86;25584;-72
2021/12/28 02:20:43;;;;;;;37.20;15.72;;;;;;;-8.63;69.24;100156.45;1669849;85;25432;-72
2021/12/28 02:23:11;;;;;;;38.40;15.23;;;;;;;-8.67;69.17;100155.17;1674573;84;25676;-72
2021/12/28 02:25:39;;;;;;;38.45;14.58;;;;;;;-8.70;69.33;100155.54;1677084;85;25425;-73
2021/12/28 02:28:08;;;;;;;36.83;17.27;;;;;;;-8.70;69.67;100154.23;1677060;85;27373;-73
2021/12/28 02:30:39;;;;;;;43.68;16.42;;;;;;;-8.73;69.74;100155.42;1677094;85;25576;-74
2021/12/28 02:33:06;;;;;;;39.42;16.20;;;;;;;-8.71;69.70;100150.80;1677206;85;25647;-74
2021/12/28 02:35:34;;;;;;;39.05;16.77;;;;;;;-8.73;69.67;100151.49;1677789;85;25503;-73
2021/12/28 02:38:01;;;;;;;45.88;17.85;;;;;;;-8.76;69.62;100157.11;1677036;84;25265;-73
2021/12/28 02:40:31;;;;;;;40.70;16.02;;;;;;;-8.75;69.64;100158.74;1677038;85;27380;-73
2021/12/28 02:43:00;;;;;;;42.98;17.80;;;;;;;-8.74;69.79;100151.68;1677073;85;25664;-74
2021/12/28 02:45:31;;;;;;;43.13;16.82;;;;;;;-8.78;69.73;100145.16;1677052;85;25467;-74
2021/12/28 02:47:59;;;;;;;48.85;18.82;;;;;;;-8.74;69.77;100141.19;1677102;84;25570;-74
2021/12/28 02:50:33;;;;;;;39.92;16.70;;;;;;;-8.75;69.79;100141.70;1649585;85;25604;-74
2021/12/28 02:53:02;;;;;;;43.70;17.75;;;;;;;-8.75;69.96;100132.52;1676798;85;27464;-74
2021/12/28 02:55:32;;;;;;;41.10;16.57;;;;;;;-8.74;69.86;100128.87;1677157;85;25601;-74
2021/12/28 02:58:03;;;;;;;39.23;17.10;;;;;;;-8.74;70.02;100113.66;1676970;85;25424;-74
2021/12/28 03:00:44;;;;;;;42.78;17.50;;;;;;;-8.80;69.80;100115.22;1672364;85;25860;-74
2021/12/28 03:03:16;;;;;;;38.78;17.05;;;;;;;-8.80;70.01;100118.32;1677576;85;25491;-74
2021/12/28 03:05:45;;;;;;;46.55;17.70;;;;;;;-8.78;70.19;100122.88;1678579;85;27413;-74
2021/12/28 03:08:14;;;;;;;44.10;17.82;;;;;;;-8.78;70.15;100113.22;1676950;85;25633;-73
2021/12/28 03:10:43;;;;;;;44.77;17.35;;;;;;;-8.80;70.06;100116.53;1677157;85;25581;-75
2021/12/28 03:13:17;;;;;;;46.23;17.93;;;;;;;-8.79;70.12;100106.34;1677190;85;25542;-74
2021/12/28 03:15:44;;;;;;;38.70;15.38;;;;;;;-8.80;69.99;100103.90;1676675;85;25649;-74
2021/12/28 03:18:10;;;;;;;35.33;16.02;;;;;;;-8.84;70.08;100103.47;1676664;85;27496;-74
2021/12/28 03:20:37;;;;;;;34.50;15.93;;;;;;;-8.87;70.06;100104.67;1676941;85;25478;-74
2021/12/28 03:23:05;;;;;;;34.15;13.35;;;;;;;-8.87;70.14;100093.34;1673323;85;25583;-74
2021/12/28 03:25:32;;;;;;;41.42;17.40;;;;;;;-8.90;70.47;100093.23;1669677;86;25506;-74
2021/12/28 03:28:02;;;;;;;38.75;16.62;;;;;;;-8.92;70.54;100108.34;1646413;86;25524;-75
2021/12/28 03:30:30;;;;;;;37.75;17.20;;;;;;;-8.92;70.50;100108.34;1669695;86;27313;-74
2021/12/28 03:32:56;;;;;;;41.42;16.35;;;;;;;-8.91;71.00;100103.39;1669678;86;25770;-73
2021/12/28 03:35:23;;;;;;;38.63;15.95;;;;;;;-8.88;70.75;100099.09;1670044;84;25496;-74
2021/12/28 03:37:50;;;;;;;44.67;15.70;;;;;;;-8.92;70.78;100092.62;1669643;84;25950;-74
2021/12/28 03:40:17;;;;;;;41.13;16.52;;;;;;;-8.94;71.01;100087.23;1692819;84;25591;-74
2021/12/28 03:42:44;;;;;;;38.30;17.23;;;;;;;-8.95;71.38;100087.73;1669885;86;27341;-74
2021/12/28 03:45:12;;;;;;;35.70;16.30;;;;;;;-8.91;71.36;100090.80;1670318;86;25455;-74
2021/12/28 03:47:39;;;;;;;40.45;15.23;;;;;;;-8.91;71.53;100088.98;1669874;86;25625;-74
2021/12/28 03:50:09;;;;;;;40.75;16.70;;;;;;;-8.89;71.44;100085.66;1669632;86;25488;-74
2021/12/28 03:52:36;;;;;;;41.65;16.70;;;;;;;-8.90;71.37;100091.13;1669659;85;25445;-74
2021/12/28 03:55:05;;;;;;;36.80;14.98;;;;;;;-8.90;71.71;100074.08;1669728;85;27494;-74
2021/12/28 03:57:32;;;;;;;27.67;12.53;;;;;;;-8.93;72.09;100071.83;1646315;86;25586;-74
2021/12/28 03:59:58;;;;;;;37.40;16.25;;;;;;;-8.94;71.88;100082.80;1669685;85;25690;-74
2021/12/28 04:02:25;;;;;;;40.38;16.85;;;;;;;-8.96;71.84;100080.06;1669661;86;25430;-74
2021/12/28 04:04:52;;;;;;;41.35;17.57;;;;;;;-8.96;72.03;100081.37;1669935;86;25486;-75
2021/12/28 04:07:20;;;;;;;37.50;16.97;;;;;;;-8.94;72.17;100078.06;1669673;85;27380;-73
2021/12/28 04:12:22;;;;;;;47.20;17.10;;;;;;;-8.94;72.10;100081.98;1669662;86;25660;-74
2021/12/28 04:14:49;;;;;;;39.30;15.85;;;;;;;-8.93;72.13;100084.94;1669645;85;25982;-74
2021/12/28 04:17:16;;;;;;;36.38;15.65;;;;;;;-8.90;72.09;100080.13;1669614;86;25488;-74
2021/12/28 04:19:42;;;;;;;37.42;16.90;;;;;;;-8.93;72.25;100071.32;1669688;86;27427;-74
2021/12/28 04:22:09;;;;;;;47.60;18.00;;;;;;;-8.93;72.15;100061.34;1669585;86;25718;-76
2021/12/28 04:24:36;;;;;;;39.98;17.70;;;;;;;-8.92;72.16;100059.02;1676624;85;25345;-75
2021/12/28 04:27:02;;;;;;;36.83;16.95;;;;;;;-8.91;72.28;100052.28;1676924;85;25545;-75
2021/12/28 04:29:29;;;;;;;37.63;17.82;;;;;;;-8.93;72.32;100060.84;1677011;85;25663;-75
2021/12/28 04:31:55;;;;;;;44.40;16.97;;;;;;;-8.95;72.50;100059.41;1676944;85;27398;-75
2021/12/28 04:34:22;;;;;;;36.40;16.50;;;;;;;-8.95;72.65;100051.05;1676939;85;25656;-74
2021/12/28 04:36:50;;;;;;;39.30;17.23;;;;;;;-8.93;72.56;100051.66;1676979;85;25635;-75
2021/12/28 04:39:17;;;;;;;42.38;17.48;;;;;;;-8.92;72.60;100055.08;1676878;85;25498;-75
2021/12/28 04:41:44;;;;;;;38.58;16.37;;;;;;;-8.91;72.76;100062.77;1677004;85;25592;-75
2021/12/28 04:44:13;;;;;;;34.18;14.55;;;;;;;-8.89;72.66;100064.70;1676949;85;27337;-75
2021/12/28 04:46:40;;;;;;;36.98;16.48;;;;;;;-8.87;72.96;100058.79;1676873;85;25981;-75
2021/12/28 04:49:07;;;;;;;34.67;15.55;;;;;;;-8.88;72.74;100060.28;1676943;85;25659;-75
2021/12/28 04:51:34;;;;;;;36.93;16.23;;;;;;;-8.86;72.73;100054.34;1676941;85;25614;-75
2021/12/28 04:54:06;;;;;;;35.23;16.10;;;;;;;-8.86;72.69;100043.86;1676966;85;25665;-75
2021/12/28 04:56:29;;;;;;;33.65;16.10;;;;;;;-8.87;72.77;100044.37;1677582;84;27338;-75
2021/12/28 04:58:55;;;;;;;34.30;15.85;;;;;;;-8.87;72.74;100045.68;1676927;85;25632;-75
2021/12/28 05:01:22;;;;;;;39.45;16.67;;;;;;;-8.86;72.93;100053.84;1677057;85;25578;-75
2021/12/28 05:03:48;;;;;;;35.95;15.53;;;;;;;-8.82;73.02;100047.72;1677067;84;25474;-74
2021/12/28 05:06:16;;;;;;;43.13;17.57;;;;;;;-8.79;73.15;100053.09;1677083;85;25640;-75
2021/12/28 05:08:43;;;;;;;35.63;14.73;;;;;;;-8.77;73.31;100051.09;1676916;85;27348;-75
2021/12/28 05:11:09;;;;;;;38.88;16.20;;;;;;;-8.76;73.59;100046.98;1676874;85;25659;-75
2021/12/28 05:13:35;;;;;;;36.45;14.70;;;;;;;-8.73;73.27;100051.05;1676965;85;25622;-75
2021/12/28 05:16:02;;;;;;;41.10;15.63;;;;;;;-8.72;73.39;100045.59;1676954;85;25620;-76
2021/12/28 05:18:28;;;;;;;36.17;15.93;;;;;;;-8.72;73.43;100051.34;1676968;85;25472;-75
2021/12/28 05:20:55;;;;;;;40.73;17.20;;;;;;;-8.69;73.81;100041.79;1676693;85;27213;-75
2021/12/28 05:23:22;;;;;;;42.50;16.73;;;;;;;-8.68;73.78;100038.98;1646366;85;25538;-74
2021/12/28 05:25:48;;;;;;;39.25;15.98;;;;;;;-8.65;73.68;100042.55;1680150;85;25452;-74
2021/12/28 05:28:15;;;;;;;35.23;14.13;;;;;;;-8.62;74.35;100041.85;1680107;85;25879;-74
2021/12/28 05:30:41;;;;;;;34.83;16.42;;;;;;;-8.59;74.05;100043.59;1680142;85;25649;-74
2021/12/28 05:33:09;;;;;;;37.38;15.05;;;;;;;-8.57;74.23;100042.09;1680188;85;27284;-75
2021/12/28 05:35:36;;;;;;;34.60;14.87;;;;;;;-8.50;74.39;100052.13;1680206;85;25709;-74
2021/12/28 05:38:02;;;;;;;34.63;15.32;;;;;;;-8.48;74.13;100050.13;1680330;85;25652;-74
2021/12/28 05:40:29;;;;;;;37.75;15.32;;;;;;;-8.47;74.06;100047.31;1680311;85;25923;-74
2021/12/28 05:42:56;;;;;;;37.25;15.38;;;;;;;-8.44;74.16;100047.45;1680376;85;25460;-74
2021/12/28 05:45:22;;;;;;;33.25;15.08;;;;;;;-8.41;74.37;100041.80;1680335;85;27963;-74
2021/12/28 05:47:49;;;;;;;33.08;15.78;;;;;;;-8.40;74.38;100042.09;1680246;85;25470;-74
2021/12/28 05:50:15;;;;;;;42.23;17.57;;;;;;;-8.39;74.26;100041.09;1680322;85;25635;-74
2021/12/28 05:52:42;;;;;;;34.73;15.93;;;;;;;-8.37;74.52;100043.53;1703725;84;25541;-74
2021/12/28 05:55:09;;;;;;;38.33;17.27;;;;;;;-8.34;74.38;100047.06;1680369;85;25628;-74
2021/12/28 05:57:36;;;;;;;33.78;14.73;;;;;;;-8.30;74.42;100053.56;1679383;85;27900;-75
2021/12/28 06:00:09;;;;;;;40.05;15.65;;;;;;;-8.28;74.36;100056.80;1680415;85;25572;-74
2021/12/28 06:02:36;;;;;;;34.67;16.45;;;;;;;-8.29;74.35;100057.31;1680065;85;25609;-75
2021/12/28 06:05:04;;;;;;;35.55;15.45;;;;;;;-8.31;74.28;100059.33;1679636;84;25589;-75
2021/12/28 06:07:31;;;;;;;41.73;16.15;;;;;;;-8.32;74.94;100048.51;1680356;85;25682;-75
2021/12/28 06:09:58;;;;;;;38.75;16.97;;;;;;;-8.31;74.50;100050.63;1680349;85;27353;-75
2021/12/28 06:12:25;;;;;;;36.73;16.65;;;;;;;-8.29;74.71;100061.25;1680245;85;25766;-75
2021/12/28 06:14:52;;;;;;;36.95;16.30;;;;;;;-8.27;74.60;100061.06;1680227;85;25626;-75
2021/12/28 06:17:22;;;;;;;29.12;13.13;;;;;;;-8.25;74.73;100059.05;1680260;85;25505;-75
2021/12/28 06:19:49;;;;;;;39.20;16.57;;;;;;;-8.19;74.98;100067.45;1680220;84;25557;-75
2021/12/28 06:22:16;;;;;;;38.30;16.05;;;;;;;-8.13;75.00;100069.33;1680286;85;27364;-75
2021/12/28 06:24:44;;;;;;;35.13;14.90;;;;;;;-8.09;74.99;100064.02;1672368;85;25417;-75
2021/12/28 06:27:10;;;;;;;37.40;17.17;;;;;;;-8.03;74.91;100070.81;1669780;86;25662;-75
2021/12/28 06:29:37;;;;;;;35.25;16.45;;;;;;;-8.02;74.87;100075.05;1669752;86;25648;-75
2021/12/28 06:32:05;;;;;;;40.05;16.15;;;;;;;-8.01;74.91;100069.61;1669767;86;25443;-74
2021/12/28 06:34:32;;;;;;;39.70;15.98;;;;;;;-7.97;74.94;100076.59;1669926;85;27431;-75
2021/12/28 06:36:58;;;;;;;37.15;15.38;;;;;;;-7.90;74.95;100079.58;1669027;85;25763;-74
2021/12/28 06:39:26;;;;;;;34.65;14.95;;;;;;;-7.85;75.05;100077.67;1669764;85;25662;-74
2021/12/28 06:41:52;;;;;;;39.70;16.73;;;;;;;-7.82;74.99;100074.66;1669758;86;25556;-74
2021/12/28 06:44:19;;;;;;;40.25;17.45;;;;;;;-7.78;75.04;100073.77;1669797;86;25647;-74
2021/12/28 06:46:47;;;;;;;41.28;17.05;;;;;;;-7.68;75.23;100072.91;1669767;86;27351;-75
2021/12/28 06:49:15;;;;;;;40.90;16.07;;;;;;;-7.65;75.10;100073.84;1669694;85;25667;-74
2021/12/28 06:51:42;;;;;;;33.98;16.20;;;;;;;-7.61;75.15;100068.52;1670342;86;25612;-75
2021/12/28 06:54:09;;;;;;;38.67;16.48;;;;;;;-7.53;75.25;100064.39;1670498;86;25343;-74
2021/12/28 06:56:36;;;;;;;33.08;15.30;;;;;;;-7.51;75.12;100068.97;1669815;86;25637;-75
2021/12/28 06:59:03;;;;;;;42.23;17.67;;;;;;;-7.49;75.21;100065.32;1669736;86;27398;-75
2021/12/28 07:01:29;;;;;;;42.73;16.17;;;;;;;-7.49;75.02;100056.95;1669652;86;25580;-75
2021/12/28 07:03:56;;;;;;;42.15;18.02;;;;;;;-7.46;75.04;100055.73;1669887;85;25666;-75
2021/12/28 07:06:27;;;;;;;36.58;16.57;;;;;;;-7.47;75.00;100060.19;1669717;86;25488;-75
2021/12/28 07:08:54;;;;;;;36.25;17.35;;;;;;;-7.43;75.10;100063.23;1669809;86;25657;-74
2021/12/28 07:11:21;;;;;;;48.38;18.25;;;;;;;-7.39;75.15;100054.77;1669769;86;27408;-74
2021/12/28 07:13:47;;;;;;;35.52;15.00;;;;;;;-7.38;75.25;100048.49;1669621;86;25649;-73
2021/12/28 07:16:14;;;;;;;32.58;15.20;;;;;;;-7.36;75.38;100051.72;1669748;85;25419;-75
2021/12/28 07:18:40;;;;;;;32.40;15.83;;;;;;;-7.35;75.53;100056.50;1669691;86;25632;-74
2021/12/28 07:21:07;;;;;;;30.50;13.30;;;;;;;-7.32;75.37;100065.28;1669764;86;25577;-75
2021/12/28 07:23:33;;;;;;;39.30;16.27;;;;;;;-7.27;75.98;100076.05;1670460;85;27333;-74
2021/12/28 07:26:00;;;;;;;42.43;17.27;;;;;;;-7.24;75.68;100083.51;1676940;85;25586;-74
2021/12/28 07:28:27;;;;;;;37.50;17.87;;;;;;;-7.22;75.40;100074.11;1677036;85;25574;-74
2021/12/28 07:30:53;;;;;;;42.62;17.48;;;;;;;-7.19;75.35;100077.67;1680140;84;25882;-73
2021/12/28 07:33:21;;;;;;;41.40;18.60;;;;;;;-7.16;75.33;100075.97;1699368;84;25734;-75
2021/12/28 07:35:48;;;;;;;37.98;17.12;;;;;;;-7.17;75.27;100079.11;1699354;84;27919;-73
2021/12/28 07:38:14;;;;;;;39.27;17.40;;;;;;;-7.18;75.44;100067.47;1676218;85;25427;-72
2021/12/28 07:40:41;;;;;;;41.35;18.70;;;;;;;-7.21;75.48;100071.29;1705197;84;25565;-74
2021/12/28 07:43:07;;;;;;;44.20;18.75;;;;;;;-7.23;75.34;100064.11;1705250;84;25583;-73
2021/12/28 07:45:34;;;;;;;45.20;19.27;;;;;;;-7.23;75.78;100063.31;1705243;84;25610;-73
2021/12/28 07:48:00;;;;;;;40.90;17.90;;;;;;;-7.23;75.92;100074.63;1705297;84;27341;-73
2021/12/28 07:50:27;;;;;;;38.15;17.75;;;;;;;-7.25;75.76;100065.30;1676949;84;25581;-73
2021/12/28 07:52:55;;;;;;;37.23;16.75;;;;;;;-7.23;75.92;100064.11;1705209;84;25415;-73
2021/12/28 07:55:24;;;;;;;40.65;17.00;;;;;;;-7.18;76.25;100051.70;1705153;84;25651;-72
2021/12/28 07:57:50;;;;;;;43.17;19.20;;;;;;;-7.16;75.97;100054.94;1705574;84;25490;-75
2021/12/28 08:00:19;;;;;;;36.98;18.15;;;;;;;-7.17;75.78;100048.88;1705243;84;27397;-73
2021/12/28 08:02:47;;;;;;;44.93;18.90;;;;;;;-7.10;76.02;100044.12;1705314;84;25713;-74
2021/12/28 08:05:15;;;;;;;41.15;18.02;;;;;;;-7.12;75.91;100041.69;1705382;84;25634;-73
2021/12/28 08:07:42;;;;;;;41.50;18.77;;;;;;;-7.10;76.03;100046.75;1705275;84;25406;-72
2021/12/28 08:10:11;;;;;;;33.18;15.30;;;;;;;-7.11;75.90;100038.06;1705310;84;25416;-73
2021/12/28 08:12:37;;;;;;;45.52;19.17;;;;;;;-7.11;76.51;100040.69;1676987;84;27345;-72
2021/12/28 08:15:06;;;;;;;44.35;18.35;;;;;;;-7.11;76.06;100045.14;1705153;84;25596;-72
2021/12/28 08:17:36;;;;;;;38.67;18.02;;;;;;;-7.05;76.29;100041.19;1705335;84;25449;-72
2021/12/28 08:20:09;;;;;;;44.65;18.70;;;;;;;-7.00;76.46;100025.66;1676785;84;26846;-73
2021/12/28 08:22:37;;;;;;;37.50;17.32;;;;;;;-6.97;76.34;100017.34;1705239;84;25590;-72
2021/12/28 08:25:06;;;;;;;41.33;19.02;;;;;;;-6.93;76.66;100020.89;1700906;82;27332;-73
2021/12/28 08:27:33;;;;;;;49.23;19.27;;;;;;;-6.90;76.58;100016.55;1673804;84;25415;-73
2021/12/28 08:30:00;;;;;;;41.05;18.87;;;;;;;-6.82;76.86;100013.22;1697706;84;25590;-73
2021/12/28 08:32:27;;;;;;;40.28;18.73;;;;;;;-6.76;76.63;100021.62;1697664;84;25971;-72
2021/12/28 08:34:55;;;;;;;44.58;19.05;;;;;;;-6.68;76.60;100014.54;1697879;84;25472;-73
2021/12/28 08:37:21;;;;;;;43.73;18.48;;;;;;;-6.62;76.87;100015.86;1697635;84;27915;-73
2021/12/28 08:39:48;;;;;;;43.20;19.37;;;;;;;-6.60;76.56;100029.61;1673714;84;25771;-74
2021/12/28 08:42:14;;;;;;;40.85;17.27;;;;;;;-6.54;76.62;100026.67;1697712;84;25509;-75
2021/12/28 08:44:41;;;;;;;41.88;17.90;;;;;;;-6.50;76.63;100030.53;1697763;84;25561;-73
2021/12/28 08:47:08;;;;;;;45.98;19.48;;;;;;;-6.45;76.71;100036.00;1697663;84;25646;-73
2021/12/28 08:49:35;;;;;;;40.58;16.32;;;;;;;-6.41;76.64;100032.45;1697681;84;27344;-72
2021/12/28 08:52:01;;;;;;;38.67;17.62;;;;;;;-6.36;76.80;100031.84;1697635;84;25694;-72
2021/12/28 08:54:28;;;;;;;41.35;17.65;;;;;;;-6.34;77.03;100027.98;1673788;84;25658;-72
2021/12/28 08:56:54;;;;;;;44.60;18.45;;;;;;;-6.37;76.90;100028.38;1697728;84;25318;-72
2021/12/28 08:59:21;;;;;;;38.10;17.32;;;;;;;-6.32;76.98;100016.73;1697782;84;25575;-71
2021/12/28 09:01:49;;;;;;;39.33;18.37;;;;;;;-6.29;77.06;100018.16;1697741;84;27388;-72
2021/12/28 09:04:19;;;;;;;41.45;17.23;;;;;;;-6.21;77.28;100019.27;1697866;84;25686;-73
2021/12/28 09:06:46;;;;;;;41.50;18.23;;;;;;;-6.16;77.53;100027.36;1649711;84;25743;-72
2021/12/28 09:09:13;;;;;;;41.48;19.27;;;;;;;-6.12;77.30;100023.29;1663789;84;25815;-73
2021/12/28 09:11:42;;;;;;;44.03;17.90;;;;;;;-6.06;77.17;100023.80;1663584;86;25571;-74
2021/12/28 09:14:09;;;;;;;42.63;19.00;;;;;;;-6.02;77.03;100022.88;1643697;86;27360;-73
2021/12/28 09:16:36;;;;;;;43.95;19.37;;;;;;;-5.97;77.09;100020.94;1643444;87;25782;-74
2021/12/28 09:19:04;;;;;;;40.80;18.23;;;;;;;-5.92;77.15;100014.00;1643836;87;25493;-73
2021/12/28 09:21:31;;;;;;;44.18;18.65;;;;;;;-5.86;76.88;100011.03;1643783;86;25643;-73
2021/12/28 09:23:57;;;;;;;51.48;19.75;;;;;;;-5.83;76.93;100008.80;1643756;87;25237;-72
2021/12/28 09:26:24;;;;;;;40.90;18.55;;;;;;;-5.77;77.30;100004.53;1650481;85;27980;-73
2021/12/28 09:28:50;;;;;;;44.63;18.82;;;;;;;-5.76;77.12;99993.48;1650491;87;25676;-73
2021/12/28 09:31:17;;;;;;;36.83;17.05;;;;;;;-5.72;76.97;99992.03;1650576;87;25598;-73
2021/12/28 09:33:48;;;;;;;34.98;16.75;;;;;;;-5.71;77.05;99991.02;1650732;87;25401;-74
2021/12/28 09:36:16;;;;;;;38.53;18.75;;;;;;;-5.69;77.10;99998.20;1650299;86;25684;-73
2021/12/28 09:38:44;;;;;;;43.40;18.05;;;;;;;-5.69;77.29;99990.30;1650130;86;27340;-73
2021/12/28 09:41:13;;;;;;;38.17;17.30;;;;;;;-5.61;77.48;100003.25;1650293;86;25902;-73
2021/12/28 09:43:40;;;;;;;47.65;19.25;;;;;;;-5.57;77.19;99976.76;1650418;86;25858;-73
2021/12/28 09:46:07;;;;;;;39.40;18.73;;;;;;;-5.52;77.15;99984.84;1650380;85;25866;-74
2021/12/28 09:48:35;;;;;;;43.68;19.70;;;;;;;-5.48;77.41;99972.08;1650604;87;25572;-73
2021/12/28 09:51:03;;;;;;;37.23;18.12;;;;;;;-5.45;77.15;99975.09;1657315;85;27037;-73
2021/12/28 09:53:30;;;;;;;35.15;16.75;;;;;;;-5.44;77.12;99971.42;1671873;85;25625;-73
2021/12/28 09:55:57;;;;;;;41.28;18.52;;;;;;;-5.41;77.38;99966.25;1672025;85;25504;-75
2021/12/28 09:58:24;;;;;;;38.92;17.27;;;;;;;-5.39;77.03;99960.25;1671984;85;25647;-74
2021/12/28 10:00:51;;;;;;;42.83;18.42;;;;;;;-5.33;77.36;99943.59;1648756;85;25250;-76
2021/12/28 10:03:18;;;;;;;38.60;16.97;;;;;;;-5.27;77.19;99949.32;1671879;85;27495;-74
2021/12/28 10:05:45;;;;;;;34.83;15.90;;;;;;;-5.23;77.11;99940.47;1671973;85;25667;-74
2021/12/28 10:08:13;;;;;;;33.10;15.48;;;;;;;-5.20;77.23;99940.05;1671897;85;25637;-76
2021/12/28 10:10:44;;;;;;;39.75;17.35;;;;;;;-5.14;77.16;99937.05;1671869;85;25397;-75
2021/12/28 10:13:21;;;;;;;35.15;16.70;;;;;;;-5.11;76.97;99940.59;1665962;86;25633;-74
2021/12/28 10:15:51;;;;;;;38.30;17.85;;;;;;;-5.02;77.01;99943.77;1655902;85;27969;-74
2021/12/28 10:18:18;;;;;;;;;;;;;;;-4.99;76.84;99942.02;1675887;85;25466;-74
2021/12/28 10:20:55;;;;;;;40.83;19.73;;;;;;;-4.94;76.97;99936.91;1685969;85;25698;-74
2021/12/28 10:23:27;;;;;;;35.15;16.37;;;;;;;-4.88;76.91;99936.06;1676027;84;25757;-74
2021/12/28 10:25:58;;;;;;;35.40;15.83;;;;;;;-4.83;76.56;99940.70;1680089;84;25721;-74
2021/12/28 10:28:36;;;;;;;36.85;16.00;;;;;;;-4.78;76.81;99942.98;1686599;84;27323;-74
2021/12/28 10:31:19;;;;;;;41.08;18.30;;;;;;;-4.76;76.46;99941.44;1685913;84;25940;-73
2021/12/28 10:33:46;;;;;;;40.85;18.27;;;;;;;-4.77;76.25;99943.77;1668995;84;25475;-74
2021/12/28 10:36:16;;;;;;;38.23;17.20;;;;;;;-4.70;76.47;99948.48;1673239;85;26150;-74
2021/12/28 10:38:49;;;;;;;36.68;18.02;;;;;;;-4.69;76.28;99940.34;1708008;83;25457;-74
2021/12/28 10:41:20;;;;;;;37.93;17.02;;;;;;;-4.64;76.30;99941.55;1708358;84;28117;-74
2021/12/28 10:43:51;;;;;;;39.45;18.25;;;;;;;-4.64;76.02;99938.91;1735848;82;25489;-72
2021/12/28 10:46:25;;;;;;;39.15;16.60;;;;;;;-4.60;76.17;99939.55;1691707;84;25698;-72
2021/12/28 10:48:56;;;;;;;38.53;18.55;;;;;;;-4.62;75.92;99936.84;1708752;84;25475;-73
2021/12/28 10:51:31;;;;;;;38.78;17.55;;;;;;;-4.62;76.08;99927.09;1708586;84;25791;-73
2021/12/28 10:54:12;;;;;;;39.18;16.85;;;;;;;-4.59;76.07;99914.78;1708587;84;27401;-74
2021/12/28 10:56:38;;;;;;;35.23;16.90;;;;;;;-4.61;76.06;99910.23;1707834;82;25846;-76
2021/12/28 10:59:09;;;;;;;37.73;17.95;;;;;;;-4.58;75.99;99916.90;1726769;82;25791;-74
2021/12/28 11:01:38;;;;;;;37.15;16.48;;;;;;;-4.56;76.03;99909.06;1737206;82;25818;-74
2021/12/28 11:04:09;;;;;;;35.83;17.10;;;;;;;-4.53;76.09;99919.20;1710580;82;25233;-75
2021/12/28 11:06:43;;;;;;;35.65;17.20;;;;;;;-4.53;76.06;99912.59;1737842;82;27340;-75
2021/12/28 11:09:15;;;;;;;33.20;16.10;;;;;;;-4.53;75.97;99906.49;1737552;82;25484;-74
2021/12/28 11:11:42;;;;;;;40.10;16.15;;;;;;;-4.50;76.08;99903.42;1737492;82;25647;-74
2021/12/28 11:14:14;;;;;;;39.08;16.10;;;;;;;-4.46;76.09;99904.61;1737713;82;26010;-74
2021/12/28 11:16:43;;;;;;;35.60;16.60;;;;;;;-4.43;76.06;99905.47;1737513;82;25744;-74
2021/12/28 11:19:10;;;;;;;24.67;13.15;;;;;;;-4.37;76.06;99909.88;1710577;82;27496;-75